sensor_id;sensor_type;location;lat;lon;timestamp;P1;durP1;ratioP1;P2;durP2;ratioP2
13230;SDS011;6681;53.254;10.398;2023-08-08T00:01:50;23.67;;;2.90;;
13230;SDS011;6681;53.254;10.398;2023-08-08T00:04:16;1.53;;;1.30;;
13230;SDS011;6681;53.254;10.398;2023-08-08T00:06:41;2.30;;;1.70;;
13230;SDS011;6681;53.254;10.398;2023-08-08T00:09:07;3.33;;;1.60;;
13230;SDS011;6681;53.254;10.398;2023-08-08T00:11:32;2.90;;;1.87;;
13230;SDS011;6681;53.254;10.398;2023-08-08T00:13:58;3.60;;;1.47;;
13230;SDS011;6681;53.254;10.398;2023-08-08T00:16:24;3.60;;;1.40;;
13230;SDS011;6681;53.254;10.398;2023-08-08T00:18:50;1.17;;;0.83;;
13230;SDS011;6681;53.254;10.398;2023-08-08T00:21:18;4.50;;;1.20;;
13230;SDS011;6681;53.254;10.398;2023-08-08T00:23:44;4.30;;;1.80;;
13230;SDS011;6681;53.254;10.398;2023-08-08T00:26:10;2.43;;;1.17;;
13230;SDS011;6681;53.254;10.398;2023-08-08T00:28:36;4.17;;;2.07;;
13230;SDS011;6681;53.254;10.398;2023-08-08T00:31:01;4.53;;;2.63;;
13230;SDS011;6681;53.254;10.398;2023-08-08T00:33:27;7.40;;;1.67;;
13230;SDS011;6681;53.254;10.398;2023-08-08T00:35:53;2.03;;;1.67;;
13230;SDS011;6681;53.254;10.398;2023-08-08T00:38:18;3.43;;;1.73;;
13230;SDS011;6681;53.254;10.398;2023-08-08T00:40:44;4.20;;;1.70;;
13230;SDS011;6681;53.254;10.398;2023-08-08T00:43:10;4.30;;;1.77;;
13230;SDS011;6681;53.254;10.398;2023-08-08T00:45:36;1.83;;;1.10;;
13230;SDS011;6681;53.254;10.398;2023-08-08T00:48:02;2.93;;;1.20;;
13230;SDS011;6681;53.254;10.398;2023-08-08T00:50:27;3.47;;;1.20;;
13230;SDS011;6681;53.254;10.398;2023-08-08T00:52:53;8.00;;;2.20;;
13230;SDS011;6681;53.254;10.398;2023-08-08T00:55:19;6.90;;;2.77;;
13230;SDS011;6681;53.254;10.398;2023-08-08T00:57:46;26.63;;;2.60;;
13230;SDS011;6681;53.254;10.398;2023-08-08T01:00:12;3.27;;;1.57;;
13230;SDS011;6681;53.254;10.398;2023-08-08T01:02:38;5.60;;;1.97;;
13230;SDS011;6681;53.254;10.398;2023-08-08T01:05:04;2.93;;;1.33;;
13230;SDS011;6681;53.254;10.398;2023-08-08T01:07:33;2.37;;;1.03;;
13230;SDS011;6681;53.254;10.398;2023-08-08T01:10:26;2.33;;;1.33;;
13230;SDS011;6681;53.254;10.398;2023-08-08T01:12:59;4.80;;;1.20;;
13230;SDS011;6681;53.254;10.398;2023-08-08T01:15:29;3.73;;;1.63;;
13230;SDS011;6681;53.254;10.398;2023-08-08T01:18:00;2.17;;;1.40;;
13230;SDS011;6681;53.254;10.398;2023-08-08T01:20:30;1.90;;;1.67;;
13230;SDS011;6681;53.254;10.398;2023-08-08T01:26:01;3.90;;;1.30;;
13230;SDS011;6681;53.254;10.398;2023-08-08T01:28:27;2.30;;;1.63;;
13230;SDS011;6681;53.254;10.398;2023-08-08T01:30:53;1.47;;;1.30;;
13230;SDS011;6681;53.254;10.398;2023-08-08T01:33:19;4.03;;;1.27;;
13230;SDS011;6681;53.254;10.398;2023-08-08T01:35:49;4.70;;;1.10;;
13230;SDS011;6681;53.254;10.398;2023-08-08T01:38:31;2.63;;;1.63;;
13230;SDS011;6681;53.254;10.398;2023-08-08T01:41:01;2.03;;;1.20;;
13230;SDS011;6681;53.254;10.398;2023-08-08T01:43:30;4.40;;;2.23;;
13230;SDS011;6681;53.254;10.398;2023-08-08T01:45:57;5.57;;;1.60;;
13230;SDS011;6681;53.254;10.398;2023-08-08T01:48:23;5.70;;;1.47;;
13230;SDS011;6681;53.254;10.398;2023-08-08T01:50:49;3.10;;;1.23;;
13230;SDS011;6681;53.254;10.398;2023-08-08T01:53:14;6.40;;;1.10;;
13230;SDS011;6681;53.254;10.398;2023-08-08T01:55:40;5.23;;;1.53;;
13230;SDS011;6681;53.254;10.398;2023-08-08T01:58:05;3.27;;;1.17;;
13230;SDS011;6681;53.254;10.398;2023-08-08T02:00:31;2.47;;;1.43;;
13230;SDS011;6681;53.254;10.398;2023-08-08T02:02:57;3.17;;;1.73;;
13230;SDS011;6681;53.254;10.398;2023-08-08T02:05:23;3.73;;;1.40;;
13230;SDS011;6681;53.254;10.398;2023-08-08T02:07:49;1.60;;;1.23;;
13230;SDS011;6681;53.254;10.398;2023-08-08T02:10:14;6.33;;;1.80;;
13230;SDS011;6681;53.254;10.398;2023-08-08T02:12:40;1.73;;;1.40;;
13230;SDS011;6681;53.254;10.398;2023-08-08T02:15:06;5.07;;;1.00;;
13230;SDS011;6681;53.254;10.398;2023-08-08T02:17:32;2.33;;;1.53;;
13230;SDS011;6681;53.254;10.398;2023-08-08T02:19:57;2.97;;;1.10;;
13230;SDS011;6681;53.254;10.398;2023-08-08T02:22:24;5.80;;;1.73;;
13230;SDS011;6681;53.254;10.398;2023-08-08T02:24:50;4.43;;;1.33;;
13230;SDS011;6681;53.254;10.398;2023-08-08T02:27:15;5.27;;;1.20;;
13230;SDS011;6681;53.254;10.398;2023-08-08T02:29:41;5.70;;;1.87;;
13230;SDS011;6681;53.254;10.398;2023-08-08T02:32:07;4.80;;;1.53;;
13230;SDS011;6681;53.254;10.398;2023-08-08T02:34:32;4.90;;;1.10;;
13230;SDS011;6681;53.254;10.398;2023-08-08T02:36:58;5.23;;;1.67;;
13230;SDS011;6681;53.254;10.398;2023-08-08T02:39:23;1.93;;;1.00;;
13230;SDS011;6681;53.254;10.398;2023-08-08T02:41:49;2.03;;;1.10;;
13230;SDS011;6681;53.254;10.398;2023-08-08T02:44:15;3.80;;;1.40;;
13230;SDS011;6681;53.254;10.398;2023-08-08T02:46:40;5.37;;;2.20;;
13230;SDS011;6681;53.254;10.398;2023-08-08T02:49:06;6.80;;;1.67;;
13230;SDS011;6681;53.254;10.398;2023-08-08T02:51:31;4.80;;;1.37;;
13230;SDS011;6681;53.254;10.398;2023-08-08T02:53:57;3.47;;;1.77;;
13230;SDS011;6681;53.254;10.398;2023-08-08T02:56:23;4.00;;;1.50;;
13230;SDS011;6681;53.254;10.398;2023-08-08T02:58:48;6.30;;;2.30;;
13230;SDS011;6681;53.254;10.398;2023-08-08T03:01:14;4.47;;;1.90;;
13230;SDS011;6681;53.254;10.398;2023-08-08T03:03:41;2.90;;;1.93;;
13230;SDS011;6681;53.254;10.398;2023-08-08T03:06:07;4.90;;;1.33;;
13230;SDS011;6681;53.254;10.398;2023-08-08T03:08:33;4.20;;;1.27;;
13230;SDS011;6681;53.254;10.398;2023-08-08T03:10:58;3.20;;;1.70;;
13230;SDS011;6681;53.254;10.398;2023-08-08T03:13:24;7.00;;;1.50;;
13230;SDS011;6681;53.254;10.398;2023-08-08T03:15:50;3.30;;;1.90;;
13230;SDS011;6681;53.254;10.398;2023-08-08T03:18:15;1.67;;;1.57;;
13230;SDS011;6681;53.254;10.398;2023-08-08T03:20:41;3.83;;;2.00;;
13230;SDS011;6681;53.254;10.398;2023-08-08T03:23:07;11.20;;;2.10;;
13230;SDS011;6681;53.254;10.398;2023-08-08T03:25:32;3.53;;;1.67;;
13230;SDS011;6681;53.254;10.398;2023-08-08T03:27:58;5.13;;;1.87;;
13230;SDS011;6681;53.254;10.398;2023-08-08T03:30:24;2.40;;;1.50;;
13230;SDS011;6681;53.254;10.398;2023-08-08T03:32:49;4.93;;;1.63;;
13230;SDS011;6681;53.254;10.398;2023-08-08T03:35:15;2.87;;;1.50;;
13230;SDS011;6681;53.254;10.398;2023-08-08T03:37:41;5.03;;;1.70;;
13230;SDS011;6681;53.254;10.398;2023-08-08T03:40:07;4.70;;;1.87;;
13230;SDS011;6681;53.254;10.398;2023-08-08T03:42:33;3.33;;;1.60;;
13230;SDS011;6681;53.254;10.398;2023-08-08T03:44:59;3.07;;;2.13;;
13230;SDS011;6681;53.254;10.398;2023-08-08T03:47:25;2.73;;;1.70;;
13230;SDS011;6681;53.254;10.398;2023-08-08T03:49:50;5.40;;;2.27;;
13230;SDS011;6681;53.254;10.398;2023-08-08T03:52:20;5.63;;;1.70;;
13230;SDS011;6681;53.254;10.398;2023-08-08T03:54:45;2.17;;;1.80;;
13230;SDS011;6681;53.254;10.398;2023-08-08T03:57:11;7.03;;;1.40;;
13230;SDS011;6681;53.254;10.398;2023-08-08T03:59:37;2.10;;;1.30;;
13230;SDS011;6681;53.254;10.398;2023-08-08T04:02:02;2.40;;;1.33;;
13230;SDS011;6681;53.254;10.398;2023-08-08T04:04:29;5.07;;;1.83;;
13230;SDS011;6681;53.254;10.398;2023-08-08T04:06:54;4.63;;;2.03;;
13230;SDS011;6681;53.254;10.398;2023-08-08T04:09:20;5.77;;;2.07;;
13230;SDS011;6681;53.254;10.398;2023-08-08T04:11:46;2.10;;;1.73;;
13230;SDS011;6681;53.254;10.398;2023-08-08T04:14:11;3.00;;;1.77;;
13230;SDS011;6681;53.254;10.398;2023-08-08T04:16:38;1.80;;;1.30;;
13230;SDS011;6681;53.254;10.398;2023-08-08T04:19:03;3.03;;;2.10;;
13230;SDS011;6681;53.254;10.398;2023-08-08T04:21:29;1.60;;;1.50;;
13230;SDS011;6681;53.254;10.398;2023-08-08T04:23:57;3.77;;;1.83;;
13230;SDS011;6681;53.254;10.398;2023-08-08T04:26:23;3.10;;;2.20;;
13230;SDS011;6681;53.254;10.398;2023-08-08T04:28:49;4.87;;;1.40;;
13230;SDS011;6681;53.254;10.398;2023-08-08T04:31:14;1.57;;;1.43;;
13230;SDS011;6681;53.254;10.398;2023-08-08T04:33:40;2.60;;;1.33;;
13230;SDS011;6681;53.254;10.398;2023-08-08T04:36:06;3.40;;;1.43;;
13230;SDS011;6681;53.254;10.398;2023-08-08T04:38:31;5.17;;;1.40;;
13230;SDS011;6681;53.254;10.398;2023-08-08T04:40:57;3.43;;;1.90;;
13230;SDS011;6681;53.254;10.398;2023-08-08T04:43:22;7.87;;;2.73;;
13230;SDS011;6681;53.254;10.398;2023-08-08T04:45:48;1.63;;;1.50;;
13230;SDS011;6681;53.254;10.398;2023-08-08T04:48:14;3.17;;;1.43;;
13230;SDS011;6681;53.254;10.398;2023-08-08T04:50:39;6.60;;;1.60;;
13230;SDS011;6681;53.254;10.398;2023-08-08T04:53:06;3.77;;;1.43;;
13230;SDS011;6681;53.254;10.398;2023-08-08T04:55:31;2.03;;;1.80;;
13230;SDS011;6681;53.254;10.398;2023-08-08T04:57:57;12.60;;;1.97;;
13230;SDS011;6681;53.254;10.398;2023-08-08T05:00:23;6.17;;;3.07;;
13230;SDS011;6681;53.254;10.398;2023-08-08T05:02:50;6.43;;;2.07;;
13230;SDS011;6681;53.254;10.398;2023-08-08T05:05:16;6.83;;;2.00;;
13230;SDS011;6681;53.254;10.398;2023-08-08T05:07:41;4.93;;;3.10;;
13230;SDS011;6681;53.254;10.398;2023-08-08T05:10:07;2.90;;;1.73;;
13230;SDS011;6681;53.254;10.398;2023-08-08T05:12:33;3.77;;;1.50;;
13230;SDS011;6681;53.254;10.398;2023-08-08T05:14:58;1.47;;;1.37;;
13230;SDS011;6681;53.254;10.398;2023-08-08T05:17:24;3.90;;;2.20;;
13230;SDS011;6681;53.254;10.398;2023-08-08T05:19:50;5.37;;;2.23;;
13230;SDS011;6681;53.254;10.398;2023-08-08T05:22:15;1.83;;;1.73;;
13230;SDS011;6681;53.254;10.398;2023-08-08T05:24:41;5.10;;;1.50;;
13230;SDS011;6681;53.254;10.398;2023-08-08T05:27:06;3.80;;;1.60;;
13230;SDS011;6681;53.254;10.398;2023-08-08T05:29:32;2.13;;;1.47;;
13230;SDS011;6681;53.254;10.398;2023-08-08T05:31:58;1.40;;;1.30;;
13230;SDS011;6681;53.254;10.398;2023-08-08T05:34:23;4.03;;;1.67;;
13230;SDS011;6681;53.254;10.398;2023-08-08T05:36:50;2.70;;;0.93;;
13230;SDS011;6681;53.254;10.398;2023-08-08T05:39:16;2.87;;;1.30;;
13230;SDS011;6681;53.254;10.398;2023-08-08T05:41:42;1.63;;;1.20;;
13230;SDS011;6681;53.254;10.398;2023-08-08T05:44:07;1.43;;;1.30;;
13230;SDS011;6681;53.254;10.398;2023-08-08T05:46:33;1.40;;;1.30;;
13230;SDS011;6681;53.254;10.398;2023-08-08T05:48:58;2.57;;;1.03;;
13230;SDS011;6681;53.254;10.398;2023-08-08T05:51:26;3.70;;;1.10;;
13230;SDS011;6681;53.254;10.398;2023-08-08T05:53:51;2.03;;;1.10;;
13230;SDS011;6681;53.254;10.398;2023-08-08T05:56:17;1.40;;;1.13;;
13230;SDS011;6681;53.254;10.398;2023-08-08T05:58:42;2.50;;;1.50;;
13230;SDS011;6681;53.254;10.398;2023-08-08T06:01:09;1.50;;;1.20;;
13230;SDS011;6681;53.254;10.398;2023-08-08T06:03:36;2.60;;;1.63;;
13230;SDS011;6681;53.254;10.398;2023-08-08T06:06:03;4.20;;;1.50;;
13230;SDS011;6681;53.254;10.398;2023-08-08T06:08:29;3.50;;;1.80;;
13230;SDS011;6681;53.254;10.398;2023-08-08T06:10:54;1.97;;;1.80;;
13230;SDS011;6681;53.254;10.398;2023-08-08T06:13:20;3.37;;;2.00;;
13230;SDS011;6681;53.254;10.398;2023-08-08T06:15:46;1.67;;;1.57;;
13230;SDS011;6681;53.254;10.398;2023-08-08T06:18:11;2.40;;;2.27;;
13230;SDS011;6681;53.254;10.398;2023-08-08T06:20:37;2.00;;;1.70;;
13230;SDS011;6681;53.254;10.398;2023-08-08T06:23:02;3.00;;;2.27;;
13230;SDS011;6681;53.254;10.398;2023-08-08T06:25:28;4.83;;;2.47;;
13230;SDS011;6681;53.254;10.398;2023-08-08T06:27:54;4.77;;;2.57;;
13230;SDS011;6681;53.254;10.398;2023-08-08T06:30:19;4.67;;;2.20;;
13230;SDS011;6681;53.254;10.398;2023-08-08T06:32:45;3.87;;;2.40;;
13230;SDS011;6681;53.254;10.398;2023-08-08T06:35:11;2.60;;;2.00;;
13230;SDS011;6681;53.254;10.398;2023-08-08T06:37:36;2.67;;;1.70;;
13230;SDS011;6681;53.254;10.398;2023-08-08T06:40:02;3.13;;;1.83;;
13230;SDS011;6681;53.254;10.398;2023-08-08T06:42:28;2.80;;;1.77;;
13230;SDS011;6681;53.254;10.398;2023-08-08T06:44:53;1.90;;;1.67;;
13230;SDS011;6681;53.254;10.398;2023-08-08T06:47:19;1.60;;;1.50;;
13230;SDS011;6681;53.254;10.398;2023-08-08T06:49:45;2.13;;;1.83;;
13230;SDS011;6681;53.254;10.398;2023-08-08T06:52:10;2.20;;;1.80;;
13230;SDS011;6681;53.254;10.398;2023-08-08T06:54:36;1.53;;;1.43;;
13230;SDS011;6681;53.254;10.398;2023-08-08T06:57:01;2.93;;;1.70;;
13230;SDS011;6681;53.254;10.398;2023-08-08T06:59:27;1.67;;;1.23;;
13230;SDS011;6681;53.254;10.398;2023-08-08T07:01:53;3.27;;;1.83;;
13230;SDS011;6681;53.254;10.398;2023-08-08T07:04:19;2.40;;;1.33;;
13230;SDS011;6681;53.254;10.398;2023-08-08T07:06:45;7.63;;;1.90;;
13230;SDS011;6681;53.254;10.398;2023-08-08T07:09:11;5.23;;;1.63;;
13230;SDS011;6681;53.254;10.398;2023-08-08T07:11:37;5.60;;;1.40;;
13230;SDS011;6681;53.254;10.398;2023-08-08T07:14:03;2.03;;;1.90;;
13230;SDS011;6681;53.254;10.398;2023-08-08T07:16:29;2.10;;;2.00;;
13230;SDS011;6681;53.254;10.398;2023-08-08T07:18:55;2.77;;;1.63;;
13230;SDS011;6681;53.254;10.398;2023-08-08T07:21:20;2.13;;;1.93;;
13230;SDS011;6681;53.254;10.398;2023-08-08T07:23:46;7.37;;;2.03;;
13230;SDS011;6681;53.254;10.398;2023-08-08T07:26:12;1.53;;;1.23;;
13230;SDS011;6681;53.254;10.398;2023-08-08T07:28:37;7.00;;;1.63;;
13230;SDS011;6681;53.254;10.398;2023-08-08T07:31:03;3.80;;;1.60;;
13230;SDS011;6681;53.254;10.398;2023-08-08T07:33:29;1.87;;;1.30;;
13230;SDS011;6681;53.254;10.398;2023-08-08T07:35:55;4.87;;;2.73;;
13230;SDS011;6681;53.254;10.398;2023-08-08T07:38:21;2.03;;;1.17;;
13230;SDS011;6681;53.254;10.398;2023-08-08T07:40:47;3.37;;;1.30;;
13230;SDS011;6681;53.254;10.398;2023-08-08T07:43:13;3.40;;;1.40;;
13230;SDS011;6681;53.254;10.398;2023-08-08T07:45:39;5.80;;;1.53;;
13230;SDS011;6681;53.254;10.398;2023-08-08T07:48:05;2.97;;;1.27;;
13230;SDS011;6681;53.254;10.398;2023-08-08T07:50:31;3.67;;;1.20;;
13230;SDS011;6681;53.254;10.398;2023-08-08T07:52:57;4.50;;;1.73;;
13230;SDS011;6681;53.254;10.398;2023-08-08T07:55:22;4.13;;;1.27;;
13230;SDS011;6681;53.254;10.398;2023-08-08T07:57:48;1.90;;;1.00;;
13230;SDS011;6681;53.254;10.398;2023-08-08T08:00:14;5.37;;;1.50;;
13230;SDS011;6681;53.254;10.398;2023-08-08T08:02:43;7.57;;;1.77;;
13230;SDS011;6681;53.254;10.398;2023-08-08T08:05:10;2.63;;;1.00;;
13230;SDS011;6681;53.254;10.398;2023-08-08T08:07:36;3.00;;;1.10;;
13230;SDS011;6681;53.254;10.398;2023-08-08T08:10:04;3.73;;;1.80;;
13230;SDS011;6681;53.254;10.398;2023-08-08T08:12:31;3.83;;;1.17;;
13230;SDS011;6681;53.254;10.398;2023-08-08T08:14:57;2.80;;;1.10;;
13230;SDS011;6681;53.254;10.398;2023-08-08T08:17:23;4.37;;;1.30;;
13230;SDS011;6681;53.254;10.398;2023-08-08T08:19:50;3.40;;;1.10;;
13230;SDS011;6681;53.254;10.398;2023-08-08T08:22:16;2.67;;;1.23;;
13230;SDS011;6681;53.254;10.398;2023-08-08T08:24:42;2.20;;;1.13;;
13230;SDS011;6681;53.254;10.398;2023-08-08T08:27:08;4.20;;;1.00;;
13230;SDS011;6681;53.254;10.398;2023-08-08T08:29:34;2.40;;;1.30;;
13230;SDS011;6681;53.254;10.398;2023-08-08T08:31:59;2.40;;;1.87;;
13230;SDS011;6681;53.254;10.398;2023-08-08T08:34:25;2.50;;;1.13;;
13230;SDS011;6681;53.254;10.398;2023-08-08T08:36:51;5.87;;;0.87;;
13230;SDS011;6681;53.254;10.398;2023-08-08T08:39:16;0.80;;;0.70;;
13230;SDS011;6681;53.254;10.398;2023-08-08T08:41:42;3.50;;;1.67;;
13230;SDS011;6681;53.254;10.398;2023-08-08T08:44:18;1.50;;;0.67;;
13230;SDS011;6681;53.254;10.398;2023-08-08T08:46:47;2.33;;;1.10;;
13230;SDS011;6681;53.254;10.398;2023-08-08T08:49:16;2.23;;;1.07;;
13230;SDS011;6681;53.254;10.398;2023-08-08T08:51:44;5.17;;;1.00;;
13230;SDS011;6681;53.254;10.398;2023-08-08T08:54:10;2.60;;;1.07;;
13230;SDS011;6681;53.254;10.398;2023-08-08T08:56:36;1.10;;;1.00;;
13230;SDS011;6681;53.254;10.398;2023-08-08T08:59:02;2.03;;;1.30;;
13230;SDS011;6681;53.254;10.398;2023-08-08T09:01:28;2.53;;;1.47;;
13230;SDS011;6681;53.254;10.398;2023-08-08T09:03:54;1.67;;;1.03;;
13230;SDS011;6681;53.254;10.398;2023-08-08T09:06:20;2.50;;;0.73;;
13230;SDS011;6681;53.254;10.398;2023-08-08T09:08:48;0.87;;;0.87;;
13230;SDS011;6681;53.254;10.398;2023-08-08T09:11:13;3.50;;;0.70;;
13230;SDS011;6681;53.254;10.398;2023-08-08T09:13:39;1.60;;;0.90;;
13230;SDS011;6681;53.254;10.398;2023-08-08T09:16:08;6.67;;;0.60;;
13230;SDS011;6681;53.254;10.398;2023-08-08T09:18:35;1.00;;;0.43;;
13230;SDS011;6681;53.254;10.398;2023-08-08T09:21:03;0.93;;;0.40;;
13230;SDS011;6681;53.254;10.398;2023-08-08T09:23:29;1.97;;;0.50;;
13230;SDS011;6681;53.254;10.398;2023-08-08T09:25:56;1.63;;;0.90;;
13230;SDS011;6681;53.254;10.398;2023-08-08T09:28:21;1.23;;;0.73;;
13230;SDS011;6681;53.254;10.398;2023-08-08T09:30:48;1.33;;;0.93;;
13230;SDS011;6681;53.254;10.398;2023-08-08T09:33:14;4.00;;;0.80;;
13230;SDS011;6681;53.254;10.398;2023-08-08T09:35:40;0.47;;;0.37;;
13230;SDS011;6681;53.254;10.398;2023-08-08T09:38:05;6.60;;;0.70;;
13230;SDS011;6681;53.254;10.398;2023-08-08T09:40:31;2.73;;;0.63;;
13230;SDS011;6681;53.254;10.398;2023-08-08T09:42:57;0.30;;;0.30;;
13230;SDS011;6681;53.254;10.398;2023-08-08T09:45:25;2.47;;;1.37;;
13230;SDS011;6681;53.254;10.398;2023-08-08T09:47:51;2.13;;;0.33;;
13230;SDS011;6681;53.254;10.398;2023-08-08T09:50:17;2.43;;;0.57;;
13230;SDS011;6681;53.254;10.398;2023-08-08T09:52:44;1.53;;;0.97;;
13230;SDS011;6681;53.254;10.398;2023-08-08T09:55:11;0.80;;;0.80;;
13230;SDS011;6681;53.254;10.398;2023-08-08T09:57:40;3.40;;;0.83;;
13230;SDS011;6681;53.254;10.398;2023-08-08T10:00:07;2.23;;;1.10;;
13230;SDS011;6681;53.254;10.398;2023-08-08T10:02:37;0.97;;;0.57;;
13230;SDS011;6681;53.254;10.398;2023-08-08T10:05:04;2.20;;;0.60;;
13230;SDS011;6681;53.254;10.398;2023-08-08T10:07:30;2.73;;;0.90;;
13230;SDS011;6681;53.254;10.398;2023-08-08T10:09:56;3.23;;;0.70;;
13230;SDS011;6681;53.254;10.398;2023-08-08T10:12:23;2.53;;;0.80;;
13230;SDS011;6681;53.254;10.398;2023-08-08T10:14:50;2.63;;;1.00;;
13230;SDS011;6681;53.254;10.398;2023-08-08T10:17:17;4.30;;;0.60;;
13230;SDS011;6681;53.254;10.398;2023-08-08T10:19:51;4.67;;;1.43;;
13230;SDS011;6681;53.254;10.398;2023-08-08T10:22:22;1.57;;;0.67;;
13230;SDS011;6681;53.254;10.398;2023-08-08T10:24:51;3.17;;;0.80;;
13230;SDS011;6681;53.254;10.398;2023-08-08T10:27:36;3.00;;;0.63;;
13230;SDS011;6681;53.254;10.398;2023-08-08T10:30:04;1.43;;;0.93;;
13230;SDS011;6681;53.254;10.398;2023-08-08T10:32:44;1.30;;;0.80;;
13230;SDS011;6681;53.254;10.398;2023-08-08T10:35:13;5.00;;;1.23;;
13230;SDS011;6681;53.254;10.398;2023-08-08T10:37:39;1.90;;;1.33;;
13230;SDS011;6681;53.254;10.398;2023-08-08T10:40:06;1.57;;;1.00;;
13230;SDS011;6681;53.254;10.398;2023-08-08T10:42:40;0.73;;;0.50;;
13230;SDS011;6681;53.254;10.398;2023-08-08T10:45:09;1.27;;;0.67;;
13230;SDS011;6681;53.254;10.398;2023-08-08T10:47:37;1.20;;;0.80;;
13230;SDS011;6681;53.254;10.398;2023-08-08T10:52:55;4.33;;;0.80;;
13230;SDS011;6681;53.254;10.398;2023-08-08T10:55:42;1.03;;;0.57;;
13230;SDS011;6681;53.254;10.398;2023-08-08T10:58:09;0.73;;;0.70;;
13230;SDS011;6681;53.254;10.398;2023-08-08T11:00:36;4.80;;;0.60;;
13230;SDS011;6681;53.254;10.398;2023-08-08T11:03:06;0.60;;;0.60;;
13230;SDS011;6681;53.254;10.398;2023-08-08T11:05:34;4.03;;;0.70;;
13230;SDS011;6681;53.254;10.398;2023-08-08T11:08:01;1.90;;;0.80;;
13230;SDS011;6681;53.254;10.398;2023-08-08T11:10:28;1.00;;;0.53;;
13230;SDS011;6681;53.254;10.398;2023-08-08T11:13:02;1.70;;;0.50;;
13230;SDS011;6681;53.254;10.398;2023-08-08T11:15:29;2.30;;;0.60;;
13230;SDS011;6681;53.254;10.398;2023-08-08T11:17:57;4.77;;;0.33;;
13230;SDS011;6681;53.254;10.398;2023-08-08T11:20:24;1.80;;;0.47;;
13230;SDS011;6681;53.254;10.398;2023-08-08T11:22:50;0.60;;;0.60;;
13230;SDS011;6681;53.254;10.398;2023-08-08T11:25:21;0.60;;;0.40;;
13230;SDS011;6681;53.254;10.398;2023-08-08T11:27:54;2.03;;;0.60;;
13230;SDS011;6681;53.254;10.398;2023-08-08T11:30:21;1.00;;;0.90;;
13230;SDS011;6681;53.254;10.398;2023-08-08T11:32:47;3.40;;;0.60;;
13230;SDS011;6681;53.254;10.398;2023-08-08T11:35:19;4.70;;;0.70;;
13230;SDS011;6681;53.254;10.398;2023-08-08T11:37:52;5.33;;;0.53;;
13230;SDS011;6681;53.254;10.398;2023-08-08T11:40:19;2.67;;;0.60;;
13230;SDS011;6681;53.254;10.398;2023-08-08T11:42:46;3.53;;;0.50;;
13230;SDS011;6681;53.254;10.398;2023-08-08T11:45:12;0.63;;;0.53;;
13230;SDS011;6681;53.254;10.398;2023-08-08T11:47:39;3.03;;;0.50;;
13230;SDS011;6681;53.254;10.398;2023-08-08T11:50:05;0.80;;;0.40;;
13230;SDS011;6681;53.254;10.398;2023-08-08T11:52:32;2.43;;;0.30;;
13230;SDS011;6681;53.254;10.398;2023-08-08T11:55:00;2.27;;;0.67;;
13230;SDS011;6681;53.254;10.398;2023-08-08T11:57:25;0.70;;;0.40;;
13230;SDS011;6681;53.254;10.398;2023-08-08T11:59:55;0.53;;;0.30;;
13230;SDS011;6681;53.254;10.398;2023-08-08T12:02:22;2.40;;;0.80;;
13230;SDS011;6681;53.254;10.398;2023-08-08T12:04:48;2.97;;;0.47;;
13230;SDS011;6681;53.254;10.398;2023-08-08T12:07:14;1.83;;;0.50;;
13230;SDS011;6681;53.254;10.398;2023-08-08T12:09:41;2.13;;;0.33;;
13230;SDS011;6681;53.254;10.398;2023-08-08T12:12:08;2.37;;;0.50;;
13230;SDS011;6681;53.254;10.398;2023-08-08T12:14:41;0.30;;;0.30;;
13230;SDS011;6681;53.254;10.398;2023-08-08T12:17:08;2.63;;;0.40;;
13230;SDS011;6681;53.254;10.398;2023-08-08T12:19:34;1.40;;;0.93;;
13230;SDS011;6681;53.254;10.398;2023-08-08T12:22:00;1.43;;;0.40;;
13230;SDS011;6681;53.254;10.398;2023-08-08T12:24:25;0.73;;;0.67;;
13230;SDS011;6681;53.254;10.398;2023-08-08T12:26:51;1.30;;;0.47;;
13230;SDS011;6681;53.254;10.398;2023-08-08T12:29:17;1.70;;;0.43;;
13230;SDS011;6681;53.254;10.398;2023-08-08T12:31:42;1.50;;;0.83;;
13230;SDS011;6681;53.254;10.398;2023-08-08T12:34:08;2.13;;;0.77;;
13230;SDS011;6681;53.254;10.398;2023-08-08T12:36:34;2.10;;;0.90;;
13230;SDS011;6681;53.254;10.398;2023-08-08T12:39:00;1.53;;;0.67;;
13230;SDS011;6681;53.254;10.398;2023-08-08T12:41:26;2.30;;;1.50;;
13230;SDS011;6681;53.254;10.398;2023-08-08T12:43:54;0.80;;;0.57;;
13230;SDS011;6681;53.254;10.398;2023-08-08T12:46:20;0.90;;;0.60;;
13230;SDS011;6681;53.254;10.398;2023-08-08T12:48:46;2.10;;;0.50;;
13230;SDS011;6681;53.254;10.398;2023-08-08T12:51:12;0.83;;;0.40;;
13230;SDS011;6681;53.254;10.398;2023-08-08T12:53:37;1.50;;;0.77;;
13230;SDS011;6681;53.254;10.398;2023-08-08T12:56:03;1.10;;;0.70;;
13230;SDS011;6681;53.254;10.398;2023-08-08T12:58:29;1.93;;;0.67;;
13230;SDS011;6681;53.254;10.398;2023-08-08T13:00:54;1.07;;;0.40;;
13230;SDS011;6681;53.254;10.398;2023-08-08T13:03:20;0.80;;;0.40;;
13230;SDS011;6681;53.254;10.398;2023-08-08T13:05:46;0.60;;;0.60;;
13230;SDS011;6681;53.254;10.398;2023-08-08T13:08:12;1.17;;;0.80;;
13230;SDS011;6681;53.254;10.398;2023-08-08T13:10:38;1.80;;;0.60;;
13230;SDS011;6681;53.254;10.398;2023-08-08T13:13:04;0.30;;;0.30;;
13230;SDS011;6681;53.254;10.398;2023-08-08T13:15:30;0.63;;;0.40;;
13230;SDS011;6681;53.254;10.398;2023-08-08T13:17:56;1.27;;;0.60;;
13230;SDS011;6681;53.254;10.398;2023-08-08T13:20:22;2.73;;;0.67;;
13230;SDS011;6681;53.254;10.398;2023-08-08T13:22:50;0.40;;;0.40;;
13230;SDS011;6681;53.254;10.398;2023-08-08T13:25:16;0.27;;;0.20;;
13230;SDS011;6681;53.254;10.398;2023-08-08T13:27:43;0.63;;;0.30;;
13230;SDS011;6681;53.254;10.398;2023-08-08T13:30:09;1.60;;;0.53;;
13230;SDS011;6681;53.254;10.398;2023-08-08T13:32:35;2.60;;;0.70;;
13230;SDS011;6681;53.254;10.398;2023-08-08T13:35:01;2.37;;;0.50;;
13230;SDS011;6681;53.254;10.398;2023-08-08T13:37:27;1.13;;;0.53;;
13230;SDS011;6681;53.254;10.398;2023-08-08T13:39:53;0.83;;;0.40;;
13230;SDS011;6681;53.254;10.398;2023-08-08T13:42:18;0.37;;;0.37;;
13230;SDS011;6681;53.254;10.398;2023-08-08T13:44:44;2.87;;;0.50;;
13230;SDS011;6681;53.254;10.398;2023-08-08T13:47:09;1.30;;;0.50;;
13230;SDS011;6681;53.254;10.398;2023-08-08T13:49:35;2.53;;;0.30;;
13230;SDS011;6681;53.254;10.398;2023-08-08T13:52:01;1.60;;;1.13;;
13230;SDS011;6681;53.254;10.398;2023-08-08T13:54:26;4.53;;;1.03;;
13230;SDS011;6681;53.254;10.398;2023-08-08T13:56:52;3.47;;;0.30;;
13230;SDS011;6681;53.254;10.398;2023-08-08T13:59:18;0.30;;;0.30;;
13230;SDS011;6681;53.254;10.398;2023-08-08T14:01:43;1.60;;;0.30;;
13230;SDS011;6681;53.254;10.398;2023-08-08T14:04:09;2.67;;;1.07;;
13230;SDS011;6681;53.254;10.398;2023-08-08T14:06:34;1.00;;;0.47;;
13230;SDS011;6681;53.254;10.398;2023-08-08T14:09:00;0.80;;;0.40;;
13230;SDS011;6681;53.254;10.398;2023-08-08T14:11:26;7.23;;;1.57;;
13230;SDS011;6681;53.254;10.398;2023-08-08T14:13:51;4.63;;;0.60;;
13230;SDS011;6681;53.254;10.398;2023-08-08T14:16:17;0.90;;;0.20;;
13230;SDS011;6681;53.254;10.398;2023-08-08T14:18:43;3.37;;;0.60;;
13230;SDS011;6681;53.254;10.398;2023-08-08T14:21:08;1.93;;;0.90;;
13230;SDS011;6681;53.254;10.398;2023-08-08T14:23:34;0.90;;;0.50;;
13230;SDS011;6681;53.254;10.398;2023-08-08T14:25:59;2.73;;;0.50;;
13230;SDS011;6681;53.254;10.398;2023-08-08T14:28:25;1.23;;;0.70;;
13230;SDS011;6681;53.254;10.398;2023-08-08T14:30:51;1.23;;;0.70;;
13230;SDS011;6681;53.254;10.398;2023-08-08T14:33:16;1.77;;;0.50;;
13230;SDS011;6681;53.254;10.398;2023-08-08T14:35:42;1.37;;;0.63;;
13230;SDS011;6681;53.254;10.398;2023-08-08T14:38:08;1.57;;;0.87;;
13230;SDS011;6681;53.254;10.398;2023-08-08T14:40:33;1.40;;;0.70;;
13230;SDS011;6681;53.254;10.398;2023-08-08T14:43:17;3.13;;;0.93;;
13230;SDS011;6681;53.254;10.398;2023-08-08T14:45:44;2.37;;;0.37;;
13230;SDS011;6681;53.254;10.398;2023-08-08T14:48:10;1.77;;;0.57;;
13230;SDS011;6681;53.254;10.398;2023-08-08T14:50:36;3.13;;;1.17;;